Gas Grouper — V7TZ2 — position and weather

sailwx.info

Track history (hours):
 
Tides and Currents Weather Stations Pressure Air Temp Water Temp Dewpoint Dewpoint Depression Visibility Wind Speed Wind Dir Waves Ship Positions

Gas Grouper

Last reported at 2014-Aug-25 04:33 UTC. Time now 2014-Aug-27 13:10 UTC.
Position N 50°33' E 000°13'.

Length 174 m; draft 7.4 m.

Type: Tanker. MMSI: 538003910.

Date/timePositionNaut miles runAvg speedWind from/ knotsBaromVisibWave heightAir tempDewpointWater temp
2014-Aug-25 04:33N 50°33' E 000°13'1716.9
2014-Aug-25 03:32N 50°40' E 000°38'3115.9
2014-Aug-25 01:34N 50°59' E 001°17'1413.8
2014-Aug-25 00:33N 51°08' E 001°34'1313.5
2014-Aug-24 23:34N 51°17' E 001°49'1212.4
2014-Aug-24 22:33N 51°23' E 002°07'1514.8
2014-Aug-24 21:32N 51°23' E 002°31'1313.7
2014-Aug-24 20:33N 51°25' E 002°52'1716.8
2014-Aug-24 19:34N 51°24' E 003°19'1414.4
2014-Aug-24 18:34N 51°25' E 003°43'1211.9
2014-Aug-24 17:33N 51°25' E 004°02'1110.7
2014-Aug-24 16:34N 51°21' E 004°17'0 0.2
2014-Aug-24 15:34N 51°21' E 004°18'1 0.1
2014-Aug-24 02:25N 51°22' E 004°17'0 0.0
2014-Aug-24 01:28N 51°22' E 004°17'0 0.0
2014-Aug-23 20:04N 51°22' E 004°17'13 0.8
2014-Aug-23 03:33N 51°23' E 003°57'10 9.9
2014-Aug-23 02:33N 51°26' E 003°41'1212.2
2014-Aug-23 01:33N 51°24' E 003°22'1515.4
2014-Aug-23 00:33N 51°25' E 002°57'1010.5
2014-Aug-22 23:33N 51°22' E 002°41'4 3.8
2014-Aug-22 22:28N 51°26' E 002°38'0 0.1
2014-Aug-22 21:31N 51°26' E 002°38'0 0.1
2014-Aug-22 20:31N 51°26' E 002°38'0 0.0
2014-Aug-22 19:25N 51°26' E 002°38'0 0.0
2014-Aug-22 18:31N 51°26' E 002°38'0 0.0
2014-Aug-22 17:31N 51°26' E 002°38'0 0.0
2014-Aug-22 16:31N 51°26' E 002°38'0 0.2
2014-Aug-22 15:31N 51°26' E 002°38'0 0.1
2014-Aug-22 14:31N 51°26' E 002°38'0 0.0
2014-Aug-22 13:25N 51°26' E 002°38'0 0.0
2014-Aug-22 12:19N 51°26' E 002°38'0 0.0
2014-Aug-22 11:31N 51°26' E 002°38'0 0.0
2014-Aug-22 10:31N 51°26' E 002°38'0 0.0
2014-Aug-22 09:28N 51°26' E 002°38'0 0.0
2014-Aug-22 08:25N 51°26' E 002°38'0 0.2
2014-Aug-22 07:28N 51°26' E 002°38'0 0.1
2014-Aug-22 06:31N 51°26' E 002°38'0 0.1
2014-Aug-22 05:31N 51°26' E 002°38'0 0.1
2014-Aug-22 04:28N 51°26' E 002°38'0 0.0
2014-Aug-22 03:19N 51°26' E 002°38'0 0.0
2014-Aug-22 02:25N 51°26' E 002°38'0 0.0
2014-Aug-22 01:19N 51°26' E 002°38'0 0.0
2014-Aug-22 00:19N 51°26' E 002°38'0 0.0
2014-Aug-21 23:31N 51°26' E 002°38'0 0.0
2014-Aug-21 22:31N 51°26' E 002°38'0 0.0
2014-Aug-21 21:31N 51°26' E 002°38'0 0.0
2014-Aug-21 20:31N 51°26' E 002°38'0 0.0
2014-Aug-21 19:28N 51°26' E 002°38'0 0.0
2014-Aug-21 18:31N 51°26' E 002°38'0 0.0
2014-Aug-21 17:28N 51°26' E 002°38'0 0.0
2014-Aug-21 16:16N 51°26' E 002°38'0 0.0
2014-Aug-21 15:31N 51°26' E 002°38'0 0.0
2014-Aug-21 14:28N 51°26' E 002°38'0 0.0
2014-Aug-21 13:31N 51°26' E 002°38'0 0.0
2014-Aug-21 12:31N 51°26' E 002°38'0 0.0
2014-Aug-21 11:31N 51°26' E 002°38'0 0.0
2014-Aug-21 10:31N 51°26' E 002°38'0 0.0
2014-Aug-21 09:31N 51°26' E 002°38'0 0.0
2014-Aug-21 08:28N 51°26' E 002°38'0 0.1
2014-Aug-21 07:25N 51°26' E 002°38'0 0.1
2014-Aug-21 06:28N 51°26' E 002°38'0 0.0
2014-Aug-21 05:31N 51°26' E 002°38'0 0.0
2014-Aug-21 04:28N 51°26' E 002°38'0 0.0
2014-Aug-21 03:31N 51°26' E 002°38'0 0.1
2014-Aug-21 02:25N 51°26' E 002°38'0 0.1
2014-Aug-21 01:31N 51°26' E 002°38'0 0.0
2014-Aug-21 00:31N 51°26' E 002°38'0 0.0
2014-Aug-20 23:22N 51°26' E 002°38'0 0.0
2014-Aug-20 22:31N 51°26' E 002°38'0 0.0
2014-Aug-20 21:31N 51°26' E 002°38'0 0.0
2014-Aug-20 20:25N 51°26' E 002°38'0 0.0
2014-Aug-20 19:31N 51°26' E 002°38'0 0.1
2014-Aug-20 18:28N 51°26' E 002°38'0 0.1
2014-Aug-20 17:28N 51°26' E 002°38'0 0.0
2014-Aug-20 16:31N 51°26' E 002°38'0 0.0
2014-Aug-20 15:25N 51°26' E 002°38'0 0.0
2014-Aug-20 14:31N 51°26' E 002°38'0 0.1
2014-Aug-20 13:31N 51°26' E 002°38'0 0.1
2014-Aug-20 12:25N 51°26' E 002°38'0 0.1
2014-Aug-20 11:28N 51°26' E 002°38'0 0.0
2014-Aug-20 10:31N 51°26' E 002°38'0 0.0
2014-Aug-20 09:31N 51°26' E 002°38'0 0.1
2014-Aug-20 08:31N 51°26' E 002°38'0 0.0
2014-Aug-20 07:31N 51°26' E 002°38'0 0.1
2014-Aug-20 06:28N 51°26' E 002°38'0 0.0
2014-Aug-20 05:31N 51°26' E 002°38'0 0.1
2014-Aug-20 04:31N 51°26' E 002°38'0 0.0
2014-Aug-20 03:34N 51°26' E 002°38'3 2.5
2014-Aug-20 02:30N 51°23' E 002°36'1212.1
2014-Aug-20 01:33N 51°18' E 002°19'1313.1
2014-Aug-20 00:34N 51°11' E 002°02'1313.2
2014-Aug-19 23:34N 51°04' E 001°44'1313.3
2014-Aug-19 22:34N 50°54' E 001°30'2813.7
2014-Aug-19 20:32N 50°32' E 001°03'1414.0
2014-Aug-19 19:33N 50°27' E 000°43'1414.2
2014-Aug-19 18:33N 50°23' E 000°22'  
2014-Aug-16 20:13N 37°50' W 009°40'3712.9
2014-Aug-16 17:21N 37°14' W 009°29'1112.7
2014-Aug-16 16:30N 37°03' W 009°27'3511.8
2014-Aug-16 13:33N 36°37' W 008°58'2013.3
2014-Aug-16 12:04N 36°32' W 008°35'1414.1
2014-Aug-16 11:05N 36°27' W 008°18'  
Track history (hours):
 
Tides and Currents Weather Stations Pressure Air Temp Water Temp Dewpoint Dewpoint Depression Visibility Wind Speed Wind Dir Waves Ship Positions

Gas Grouper

Last reported at 2014-Aug-25 04:33 UTC. Time now 2014-Aug-27 13:10 UTC.
Position N 50°33' E 000°13'.

Length 174 m; draft 7.4 m.

Type: Tanker. MMSI: 538003910.

Date/timePositionNaut miles runAvg speedWind from/ knotsBaromVisibWave heightAir tempDewpointWater temp
2014-Aug-25 04:33N 50°33' E 000°13'1716.9
2014-Aug-25 03:32N 50°40' E 000°38'3115.9
2014-Aug-25 01:34N 50°59' E 001°17'1413.8
2014-Aug-25 00:33N 51°08' E 001°34'1313.5
2014-Aug-24 23:34N 51°17' E 001°49'1212.4
2014-Aug-24 22:33N 51°23' E 002°07'1514.8
2014-Aug-24 21:32N 51°23' E 002°31'1313.7
2014-Aug-24 20:33N 51°25' E 002°52'1716.8
2014-Aug-24 19:34N 51°24' E 003°19'1414.4
2014-Aug-24 18:34N 51°25' E 003°43'1211.9
2014-Aug-24 17:33N 51°25' E 004°02'1110.7
2014-Aug-24 16:34N 51°21' E 004°17'0 0.2
2014-Aug-24 15:34N 51°21' E 004°18'1 0.1
2014-Aug-24 02:25N 51°22' E 004°17'0 0.0
2014-Aug-24 01:28N 51°22' E 004°17'0 0.0
2014-Aug-23 20:04N 51°22' E 004°17'13 0.8
2014-Aug-23 03:33N 51°23' E 003°57'10 9.9
2014-Aug-23 02:33N 51°26' E 003°41'1212.2
2014-Aug-23 01:33N 51°24' E 003°22'1515.4
2014-Aug-23 00:33N 51°25' E 002°57'1010.5
2014-Aug-22 23:33N 51°22' E 002°41'4 3.8
2014-Aug-22 22:28N 51°26' E 002°38'0 0.1
2014-Aug-22 21:31N 51°26' E 002°38'0 0.1
2014-Aug-22 20:31N 51°26' E 002°38'0 0.0
2014-Aug-22 19:25N 51°26' E 002°38'0 0.0
2014-Aug-22 18:31N 51°26' E 002°38'0 0.0
2014-Aug-22 17:31N 51°26' E 002°38'0 0.0
2014-Aug-22 16:31N 51°26' E 002°38'0 0.2
2014-Aug-22 15:31N 51°26' E 002°38'0 0.1
2014-Aug-22 14:31N 51°26' E 002°38'0 0.0
2014-Aug-22 13:25N 51°26' E 002°38'0 0.0
2014-Aug-22 12:19N 51°26' E 002°38'0 0.0
2014-Aug-22 11:31N 51°26' E 002°38'0 0.0
2014-Aug-22 10:31N 51°26' E 002°38'0 0.0
2014-Aug-22 09:28N 51°26' E 002°38'0 0.0
2014-Aug-22 08:25N 51°26' E 002°38'0 0.2
2014-Aug-22 07:28N 51°26' E 002°38'0 0.1
2014-Aug-22 06:31N 51°26' E 002°38'0 0.1
2014-Aug-22 05:31N 51°26' E 002°38'0 0.1
2014-Aug-22 04:28N 51°26' E 002°38'0 0.0
2014-Aug-22 03:19N 51°26' E 002°38'0 0.0
2014-Aug-22 02:25N 51°26' E 002°38'0 0.0
2014-Aug-22 01:19N 51°26' E 002°38'0 0.0
2014-Aug-22 00:19N 51°26' E 002°38'0 0.0
2014-Aug-21 23:31N 51°26' E 002°38'0 0.0
2014-Aug-21 22:31N 51°26' E 002°38'0 0.0
2014-Aug-21 21:31N 51°26' E 002°38'0 0.0
2014-Aug-21 20:31N 51°26' E 002°38'0 0.0
2014-Aug-21 19:28N 51°26' E 002°38'0 0.0
2014-Aug-21 18:31N 51°26' E 002°38'0 0.0
2014-Aug-21 17:28N 51°26' E 002°38'0 0.0
2014-Aug-21 16:16N 51°26' E 002°38'0 0.0
2014-Aug-21 15:31N 51°26' E 002°38'0 0.0
2014-Aug-21 14:28N 51°26' E 002°38'0 0.0
2014-Aug-21 13:31N 51°26' E 002°38'0 0.0
2014-Aug-21 12:31N 51°26' E 002°38'0 0.0
2014-Aug-21 11:31N 51°26' E 002°38'0 0.0
2014-Aug-21 10:31N 51°26' E 002°38'0 0.0
2014-Aug-21 09:31N 51°26' E 002°38'0 0.0
2014-Aug-21 08:28N 51°26' E 002°38'0 0.1
2014-Aug-21 07:25N 51°26' E 002°38'0 0.1
2014-Aug-21 06:28N 51°26' E 002°38'0 0.0
2014-Aug-21 05:31N 51°26' E 002°38'0 0.0
2014-Aug-21 04:28N 51°26' E 002°38'0 0.0
2014-Aug-21 03:31N 51°26' E 002°38'0 0.1
2014-Aug-21 02:25N 51°26' E 002°38'0 0.1
2014-Aug-21 01:31N 51°26' E 002°38'0 0.0
2014-Aug-21 00:31N 51°26' E 002°38'0 0.0
2014-Aug-20 23:22N 51°26' E 002°38'0 0.0
2014-Aug-20 22:31N 51°26' E 002°38'0 0.0
2014-Aug-20 21:31N 51°26' E 002°38'0 0.0
2014-Aug-20 20:25N 51°26' E 002°38'0 0.0
2014-Aug-20 19:31N 51°26' E 002°38'0 0.1
2014-Aug-20 18:28N 51°26' E 002°38'0 0.1
2014-Aug-20 17:28N 51°26' E 002°38'0 0.0
2014-Aug-20 16:31N 51°26' E 002°38'0 0.0
2014-Aug-20 15:25N 51°26' E 002°38'0 0.0
2014-Aug-20 14:31N 51°26' E 002°38'0 0.1
2014-Aug-20 13:31N 51°26' E 002°38'0 0.1
2014-Aug-20 12:25N 51°26' E 002°38'0 0.1
2014-Aug-20 11:28N 51°26' E 002°38'0 0.0
2014-Aug-20 10:31N 51°26' E 002°38'0 0.0
2014-Aug-20 09:31N 51°26' E 002°38'0 0.1
2014-Aug-20 08:31N 51°26' E 002°38'0 0.0
2014-Aug-20 07:31N 51°26' E 002°38'0 0.1
2014-Aug-20 06:28N 51°26' E 002°38'0 0.0
2014-Aug-20 05:31N 51°26' E 002°38'0 0.1
2014-Aug-20 04:31N 51°26' E 002°38'0 0.0
2014-Aug-20 03:34N 51°26' E 002°38'3 2.5
2014-Aug-20 02:30N 51°23' E 002°36'1212.1
2014-Aug-20 01:33N 51°18' E 002°19'1313.1
2014-Aug-20 00:34N 51°11' E 002°02'1313.2
2014-Aug-19 23:34N 51°04' E 001°44'1313.3
2014-Aug-19 22:34N 50°54' E 001°30'2813.7
2014-Aug-19 20:32N 50°32' E 001°03'1414.0
2014-Aug-19 19:33N 50°27' E 000°43'1414.2
2014-Aug-19 18:33N 50°23' E 000°22'  
2014-Aug-16 20:13N 37°50' W 009°40'3712.9
2014-Aug-16 17:21N 37°14' W 009°29'1112.7
2014-Aug-16 16:30N 37°03' W 009°27'3511.8
2014-Aug-16 13:33N 36°37' W 008°58'2013.3
2014-Aug-16 12:04N 36°32' W 008°35'1414.1
2014-Aug-16 11:05N 36°27' W 008°18'  

Dump ship's entire track history